sensor_id;sensor_type;location;lat;lon;timestamp;P1;durP1;ratioP1;P2;durP2;ratioP2
32214;SDS011;18708;53.124;23.190;2024-02-26T00:01:01;69.60;;;41.83;;
32214;SDS011;18708;53.124;23.190;2024-02-26T00:03:27;70.38;;;41.30;;
32214;SDS011;18708;53.124;23.190;2024-02-26T00:05:53;69.07;;;39.83;;
32214;SDS011;18708;53.124;23.190;2024-02-26T00:08:18;75.85;;;42.10;;
32214;SDS011;18708;53.124;23.190;2024-02-26T00:10:44;68.38;;;40.58;;
32214;SDS011;18708;53.124;23.190;2024-02-26T00:13:10;61.75;;;38.53;;
32214;SDS011;18708;53.124;23.190;2024-02-26T00:15:35;69.22;;;40.17;;
32214;SDS011;18708;53.124;23.190;2024-02-26T00:18:01;71.82;;;41.33;;
32214;SDS011;18708;53.124;23.190;2024-02-26T00:20:27;68.68;;;39.95;;
32214;SDS011;18708;53.124;23.190;2024-02-26T00:22:52;68.07;;;39.47;;
32214;SDS011;18708;53.124;23.190;2024-02-26T00:25:18;72.22;;;40.80;;
32214;SDS011;18708;53.124;23.190;2024-02-26T00:27:44;75.75;;;40.33;;
32214;SDS011;18708;53.124;23.190;2024-02-26T00:30:09;74.38;;;41.28;;
32214;SDS011;18708;53.124;23.190;2024-02-26T00:32:36;72.80;;;40.53;;
32214;SDS011;18708;53.124;23.190;2024-02-26T00:35:01;70.90;;;39.83;;
32214;SDS011;18708;53.124;23.190;2024-02-26T00:37:27;70.47;;;40.38;;
32214;SDS011;18708;53.124;23.190;2024-02-26T00:39:53;67.75;;;37.75;;
32214;SDS011;18708;53.124;23.190;2024-02-26T00:42:19;71.45;;;39.63;;
32214;SDS011;18708;53.124;23.190;2024-02-26T00:44:44;67.10;;;40.42;;
32214;SDS011;18708;53.124;23.190;2024-02-26T00:47:10;71.85;;;40.67;;
32214;SDS011;18708;53.124;23.190;2024-02-26T00:49:36;72.75;;;40.10;;
32214;SDS011;18708;53.124;23.190;2024-02-26T00:52:02;71.13;;;41.22;;
32214;SDS011;18708;53.124;23.190;2024-02-26T00:54:28;70.97;;;41.03;;
32214;SDS011;18708;53.124;23.190;2024-02-26T00:56:54;72.85;;;41.05;;
32214;SDS011;18708;53.124;23.190;2024-02-26T00:59:20;66.63;;;40.25;;
32214;SDS011;18708;53.124;23.190;2024-02-26T01:01:45;70.65;;;38.90;;
32214;SDS011;18708;53.124;23.190;2024-02-26T01:04:11;65.88;;;39.35;;
32214;SDS011;18708;53.124;23.190;2024-02-26T01:06:39;66.72;;;39.80;;
32214;SDS011;18708;53.124;23.190;2024-02-26T01:09:05;72.57;;;40.13;;
32214;SDS011;18708;53.124;23.190;2024-02-26T01:11:31;68.43;;;40.38;;
32214;SDS011;18708;53.124;23.190;2024-02-26T01:13:57;67.78;;;40.97;;
32214;SDS011;18708;53.124;23.190;2024-02-26T01:16:23;74.18;;;40.38;;
32214;SDS011;18708;53.124;23.190;2024-02-26T01:18:49;72.20;;;40.30;;
32214;SDS011;18708;53.124;23.190;2024-02-26T01:21:14;70.55;;;39.85;;
32214;SDS011;18708;53.124;23.190;2024-02-26T01:23:40;74.97;;;40.90;;
32214;SDS011;18708;53.124;23.190;2024-02-26T01:26:06;74.90;;;39.17;;
32214;SDS011;18708;53.124;23.190;2024-02-26T01:28:31;72.28;;;39.85;;
32214;SDS011;18708;53.124;23.190;2024-02-26T01:30:57;73.22;;;40.20;;
32214;SDS011;18708;53.124;23.190;2024-02-26T01:33:24;67.13;;;38.45;;
32214;SDS011;18708;53.124;23.190;2024-02-26T01:35:51;65.72;;;37.67;;
32214;SDS011;18708;53.124;23.190;2024-02-26T01:38:16;69.72;;;38.22;;
32214;SDS011;18708;53.124;23.190;2024-02-26T01:40:42;67.45;;;37.97;;
32214;SDS011;18708;53.124;23.190;2024-02-26T01:43:08;69.75;;;37.80;;
32214;SDS011;18708;53.124;23.190;2024-02-26T01:45:33;69.75;;;38.97;;
32214;SDS011;18708;53.124;23.190;2024-02-26T01:47:59;71.93;;;38.38;;
32214;SDS011;18708;53.124;23.190;2024-02-26T01:50:25;67.72;;;38.13;;
32214;SDS011;18708;53.124;23.190;2024-02-26T01:52:52;73.72;;;40.10;;
32214;SDS011;18708;53.124;23.190;2024-02-26T01:55:19;65.38;;;37.65;;
32214;SDS011;18708;53.124;23.190;2024-02-26T01:57:48;67.30;;;38.00;;
32214;SDS011;18708;53.124;23.190;2024-02-26T02:00:16;60.25;;;36.00;;
32214;SDS011;18708;53.124;23.190;2024-02-26T02:02:43;72.07;;;38.42;;
32214;SDS011;18708;53.124;23.190;2024-02-26T02:05:12;66.20;;;38.47;;
32214;SDS011;18708;53.124;23.190;2024-02-26T02:07:38;67.28;;;37.53;;
32214;SDS011;18708;53.124;23.190;2024-02-26T02:10:06;71.22;;;38.28;;
32214;SDS011;18708;53.124;23.190;2024-02-26T02:12:32;67.60;;;39.50;;
32214;SDS011;18708;53.124;23.190;2024-02-26T02:14:59;70.60;;;38.92;;
32214;SDS011;18708;53.124;23.190;2024-02-26T02:17:25;65.63;;;37.58;;
32214;SDS011;18708;53.124;23.190;2024-02-26T02:19:53;70.55;;;37.90;;
32214;SDS011;18708;53.124;23.190;2024-02-26T02:22:18;75.80;;;41.28;;
32214;SDS011;18708;53.124;23.190;2024-02-26T02:24:44;84.32;;;46.00;;
32214;SDS011;18708;53.124;23.190;2024-02-26T02:27:11;75.72;;;42.50;;
32214;SDS011;18708;53.124;23.190;2024-02-26T02:29:37;77.05;;;43.25;;
32214;SDS011;18708;53.124;23.190;2024-02-26T02:32:02;79.43;;;43.03;;
32214;SDS011;18708;53.124;23.190;2024-02-26T02:34:30;82.03;;;44.25;;
32214;SDS011;18708;53.124;23.190;2024-02-26T02:36:56;85.25;;;45.33;;
32214;SDS011;18708;53.124;23.190;2024-02-26T02:39:24;86.60;;;44.67;;
32214;SDS011;18708;53.124;23.190;2024-02-26T02:41:50;76.35;;;41.53;;
32214;SDS011;18708;53.124;23.190;2024-02-26T02:44:16;79.72;;;40.83;;
32214;SDS011;18708;53.124;23.190;2024-02-26T02:46:42;68.78;;;39.08;;
32214;SDS011;18708;53.124;23.190;2024-02-26T02:49:11;73.85;;;40.85;;
32214;SDS011;18708;53.124;23.190;2024-02-26T02:51:37;70.68;;;39.13;;
32214;SDS011;18708;53.124;23.190;2024-02-26T02:54:03;74.22;;;40.25;;
32214;SDS011;18708;53.124;23.190;2024-02-26T02:56:28;78.13;;;40.40;;
32214;SDS011;18708;53.124;23.190;2024-02-26T02:58:54;72.90;;;38.95;;
32214;SDS011;18708;53.124;23.190;2024-02-26T03:01:20;76.18;;;38.85;;
32214;SDS011;18708;53.124;23.190;2024-02-26T03:03:45;76.25;;;40.35;;
32214;SDS011;18708;53.124;23.190;2024-02-26T03:06:11;76.72;;;39.70;;
32214;SDS011;18708;53.124;23.190;2024-02-26T03:08:37;67.00;;;35.78;;
32214;SDS011;18708;53.124;23.190;2024-02-26T03:11:06;73.68;;;38.55;;
32214;SDS011;18708;53.124;23.190;2024-02-26T03:13:32;69.82;;;37.97;;
32214;SDS011;18708;53.124;23.190;2024-02-26T03:15:58;56.13;;;32.97;;
32214;SDS011;18708;53.124;23.190;2024-02-26T03:18:29;61.00;;;34.28;;
32214;SDS011;18708;53.124;23.190;2024-02-26T03:20:54;53.10;;;31.70;;
32214;SDS011;18708;53.124;23.190;2024-02-26T03:23:20;47.33;;;29.58;;
32214;SDS011;18708;53.124;23.190;2024-02-26T03:25:47;49.38;;;27.77;;
32214;SDS011;18708;53.124;23.190;2024-02-26T03:28:13;44.08;;;27.50;;
32214;SDS011;18708;53.124;23.190;2024-02-26T03:30:38;42.28;;;26.25;;
32214;SDS011;18708;53.124;23.190;2024-02-26T03:33:04;48.92;;;29.05;;
32214;SDS011;18708;53.124;23.190;2024-02-26T03:35:30;42.63;;;25.98;;
32214;SDS011;18708;53.124;23.190;2024-02-26T03:37:55;41.05;;;24.85;;
32214;SDS011;18708;53.124;23.190;2024-02-26T03:40:21;41.85;;;26.20;;
32214;SDS011;18708;53.124;23.190;2024-02-26T03:42:47;53.95;;;30.80;;
32214;SDS011;18708;53.124;23.190;2024-02-26T03:45:12;32.70;;;21.88;;
32214;SDS011;18708;53.124;23.190;2024-02-26T03:47:38;37.63;;;24.00;;
32214;SDS011;18708;53.124;23.190;2024-02-26T03:50:05;32.65;;;21.98;;
32214;SDS011;18708;53.124;23.190;2024-02-26T03:52:32;35.65;;;22.92;;
32214;SDS011;18708;53.124;23.190;2024-02-26T03:54:58;37.80;;;24.30;;
32214;SDS011;18708;53.124;23.190;2024-02-26T03:57:23;35.05;;;22.38;;
32214;SDS011;18708;53.124;23.190;2024-02-26T03:59:49;33.53;;;22.70;;
32214;SDS011;18708;53.124;23.190;2024-02-26T04:02:15;33.08;;;21.75;;
32214;SDS011;18708;53.124;23.190;2024-02-26T04:04:41;31.38;;;20.60;;
32214;SDS011;18708;53.124;23.190;2024-02-26T04:07:07;30.58;;;20.08;;
32214;SDS011;18708;53.124;23.190;2024-02-26T04:09:33;34.65;;;22.88;;
32214;SDS011;18708;53.124;23.190;2024-02-26T04:11:58;34.20;;;22.45;;
32214;SDS011;18708;53.124;23.190;2024-02-26T04:14:24;37.92;;;23.05;;
32214;SDS011;18708;53.124;23.190;2024-02-26T04:16:52;40.20;;;25.15;;
32214;SDS011;18708;53.124;23.190;2024-02-26T04:19:19;35.35;;;23.48;;
32214;SDS011;18708;53.124;23.190;2024-02-26T04:21:45;33.30;;;22.38;;
32214;SDS011;18708;53.124;23.190;2024-02-26T04:24:11;37.70;;;23.83;;
32214;SDS011;18708;53.124;23.190;2024-02-26T04:26:37;42.80;;;25.63;;
32214;SDS011;18708;53.124;23.190;2024-02-26T04:29:02;36.38;;;23.52;;
32214;SDS011;18708;53.124;23.190;2024-02-26T04:31:28;34.00;;;21.95;;
32214;SDS011;18708;53.124;23.190;2024-02-26T04:33:55;31.75;;;22.13;;
32214;SDS011;18708;53.124;23.190;2024-02-26T04:36:21;33.97;;;21.58;;
32214;SDS011;18708;53.124;23.190;2024-02-26T04:38:47;28.63;;;20.00;;
32214;SDS011;18708;53.124;23.190;2024-02-26T04:41:12;32.60;;;20.85;;
32214;SDS011;18708;53.124;23.190;2024-02-26T04:43:38;30.23;;;21.00;;
32214;SDS011;18708;53.124;23.190;2024-02-26T04:46:09;32.72;;;21.00;;
32214;SDS011;18708;53.124;23.190;2024-02-26T04:48:35;37.45;;;24.23;;
32214;SDS011;18708;53.124;23.190;2024-02-26T04:51:01;33.58;;;21.30;;
32214;SDS011;18708;53.124;23.190;2024-02-26T04:53:28;33.20;;;22.55;;
32214;SDS011;18708;53.124;23.190;2024-02-26T04:55:54;37.35;;;24.23;;
32214;SDS011;18708;53.124;23.190;2024-02-26T04:58:20;37.70;;;24.67;;
32214;SDS011;18708;53.124;23.190;2024-02-26T05:00:45;42.38;;;26.55;;
32214;SDS011;18708;53.124;23.190;2024-02-26T05:03:11;39.47;;;26.27;;
32214;SDS011;18708;53.124;23.190;2024-02-26T05:05:38;62.10;;;33.70;;
32214;SDS011;18708;53.124;23.190;2024-02-26T05:08:08;37.92;;;25.02;;
32214;SDS011;18708;53.124;23.190;2024-02-26T05:10:33;33.75;;;22.48;;
32214;SDS011;18708;53.124;23.190;2024-02-26T05:13:04;33.38;;;22.40;;
32214;SDS011;18708;53.124;23.190;2024-02-26T05:15:30;32.45;;;22.02;;
32214;SDS011;18708;53.124;23.190;2024-02-26T05:17:55;38.92;;;24.45;;
32214;SDS011;18708;53.124;23.190;2024-02-26T05:20:21;39.13;;;24.20;;
32214;SDS011;18708;53.124;23.190;2024-02-26T05:22:47;28.88;;;19.85;;
32214;SDS011;18708;53.124;23.190;2024-02-26T05:25:14;38.65;;;24.90;;
32214;SDS011;18708;53.124;23.190;2024-02-26T05:27:41;33.67;;;22.13;;
32214;SDS011;18708;53.124;23.190;2024-02-26T05:30:06;28.73;;;20.00;;
32214;SDS011;18708;53.124;23.190;2024-02-26T05:32:32;42.67;;;26.75;;
32214;SDS011;18708;53.124;23.190;2024-02-26T05:34:58;34.25;;;22.77;;
32214;SDS011;18708;53.124;23.190;2024-02-26T05:37:24;36.80;;;22.33;;
32214;SDS011;18708;53.124;23.190;2024-02-26T05:39:49;50.35;;;28.48;;
32214;SDS011;18708;53.124;23.190;2024-02-26T05:42:15;43.50;;;26.17;;
32214;SDS011;18708;53.124;23.190;2024-02-26T05:44:41;66.85;;;31.50;;
32214;SDS011;18708;53.124;23.190;2024-02-26T05:47:06;39.10;;;23.58;;
32214;SDS011;18708;53.124;23.190;2024-02-26T05:49:32;42.30;;;25.33;;
32214;SDS011;18708;53.124;23.190;2024-02-26T05:51:58;46.08;;;27.02;;
32214;SDS011;18708;53.124;23.190;2024-02-26T05:54:24;44.65;;;26.10;;
32214;SDS011;18708;53.124;23.190;2024-02-26T05:56:50;42.10;;;25.35;;
32214;SDS011;18708;53.124;23.190;2024-02-26T05:59:15;51.25;;;29.65;;
32214;SDS011;18708;53.124;23.190;2024-02-26T06:01:41;42.75;;;25.48;;
32214;SDS011;18708;53.124;23.190;2024-02-26T06:04:07;46.60;;;26.80;;
32214;SDS011;18708;53.124;23.190;2024-02-26T06:06:32;49.90;;;31.20;;
32214;SDS011;18708;53.124;23.190;2024-02-26T06:08:58;45.05;;;28.42;;
32214;SDS011;18708;53.124;23.190;2024-02-26T06:11:24;43.00;;;27.17;;
32214;SDS011;18708;53.124;23.190;2024-02-26T06:13:49;56.95;;;31.58;;
32214;SDS011;18708;53.124;23.190;2024-02-26T06:16:15;42.22;;;26.75;;
32214;SDS011;18708;53.124;23.190;2024-02-26T06:18:41;65.88;;;36.33;;
32214;SDS011;18708;53.124;23.190;2024-02-26T06:21:09;82.82;;;43.08;;
32214;SDS011;18708;53.124;23.190;2024-02-26T06:23:36;55.13;;;33.30;;
32214;SDS011;18708;53.124;23.190;2024-02-26T06:26:02;79.50;;;42.88;;
32214;SDS011;18708;53.124;23.190;2024-02-26T06:28:28;47.35;;;28.77;;
32214;SDS011;18708;53.124;23.190;2024-02-26T06:30:55;67.30;;;38.47;;
32214;SDS011;18708;53.124;23.190;2024-02-26T06:33:21;63.50;;;38.70;;
32214;SDS011;18708;53.124;23.190;2024-02-26T06:35:46;52.72;;;31.42;;
32214;SDS011;18708;53.124;23.190;2024-02-26T06:38:12;66.18;;;38.35;;
32214;SDS011;18708;53.124;23.190;2024-02-26T06:40:40;109.75;;;58.58;;
32214;SDS011;18708;53.124;23.190;2024-02-26T06:43:06;79.38;;;45.88;;
32214;SDS011;18708;53.124;23.190;2024-02-26T06:45:31;63.83;;;38.42;;
32214;SDS011;18708;53.124;23.190;2024-02-26T06:47:57;73.10;;;42.08;;
32214;SDS011;18708;53.124;23.190;2024-02-26T06:50:23;82.38;;;44.15;;
32214;SDS011;18708;53.124;23.190;2024-02-26T06:52:49;85.50;;;44.38;;
32214;SDS011;18708;53.124;23.190;2024-02-26T06:55:14;85.20;;;44.72;;
32214;SDS011;18708;53.124;23.190;2024-02-26T06:57:40;97.72;;;50.40;;
32214;SDS011;18708;53.124;23.190;2024-02-26T07:00:06;103.85;;;54.60;;
32214;SDS011;18708;53.124;23.190;2024-02-26T07:02:32;118.68;;;54.90;;
32214;SDS011;18708;53.124;23.190;2024-02-26T07:04:57;108.35;;;54.67;;
32214;SDS011;18708;53.124;23.190;2024-02-26T07:07:23;110.05;;;57.60;;
32214;SDS011;18708;53.124;23.190;2024-02-26T07:09:50;114.13;;;56.38;;
32214;SDS011;18708;53.124;23.190;2024-02-26T07:12:15;110.13;;;55.88;;
32214;SDS011;18708;53.124;23.190;2024-02-26T07:14:41;100.95;;;49.92;;
32214;SDS011;18708;53.124;23.190;2024-02-26T07:17:07;101.80;;;52.58;;
32214;SDS011;18708;53.124;23.190;2024-02-26T07:19:33;98.55;;;50.40;;
32214;SDS011;18708;53.124;23.190;2024-02-26T07:21:59;88.72;;;47.38;;
32214;SDS011;18708;53.124;23.190;2024-02-26T07:24:27;89.15;;;48.45;;
32214;SDS011;18708;53.124;23.190;2024-02-26T07:26:53;86.78;;;45.25;;
32214;SDS011;18708;53.124;23.190;2024-02-26T07:29:21;77.07;;;41.50;;
32214;SDS011;18708;53.124;23.190;2024-02-26T07:31:47;78.43;;;41.80;;
32214;SDS011;18708;53.124;23.190;2024-02-26T07:34:13;69.97;;;40.10;;
32214;SDS011;18708;53.124;23.190;2024-02-26T07:36:39;77.65;;;41.70;;
32214;SDS011;18708;53.124;23.190;2024-02-26T07:39:05;70.07;;;39.47;;
32214;SDS011;18708;53.124;23.190;2024-02-26T07:41:30;66.00;;;39.38;;
32214;SDS011;18708;53.124;23.190;2024-02-26T07:43:56;74.07;;;39.72;;
32214;SDS011;18708;53.124;23.190;2024-02-26T07:46:22;66.65;;;37.65;;
32214;SDS011;18708;53.124;23.190;2024-02-26T07:48:47;77.28;;;41.33;;
32214;SDS011;18708;53.124;23.190;2024-02-26T07:51:13;84.32;;;45.13;;
32214;SDS011;18708;53.124;23.190;2024-02-26T07:53:39;71.53;;;39.75;;
32214;SDS011;18708;53.124;23.190;2024-02-26T07:56:05;78.20;;;46.30;;
32214;SDS011;18708;53.124;23.190;2024-02-26T07:58:32;68.45;;;38.05;;
32214;SDS011;18708;53.124;23.190;2024-02-26T08:00:58;66.75;;;42.85;;
32214;SDS011;18708;53.124;23.190;2024-02-26T08:03:24;63.42;;;35.75;;
32214;SDS011;18708;53.124;23.190;2024-02-26T08:05:50;66.07;;;37.33;;
32214;SDS011;18708;53.124;23.190;2024-02-26T08:08:16;59.78;;;36.90;;
32214;SDS011;18708;53.124;23.190;2024-02-26T08:10:42;58.03;;;35.72;;
32214;SDS011;18708;53.124;23.190;2024-02-26T08:13:08;55.35;;;34.65;;
32214;SDS011;18708;53.124;23.190;2024-02-26T08:15:34;54.42;;;34.90;;
32214;SDS011;18708;53.124;23.190;2024-02-26T08:18:02;51.65;;;33.78;;
32214;SDS011;18708;53.124;23.190;2024-02-26T08:20:28;53.65;;;33.03;;
32214;SDS011;18708;53.124;23.190;2024-02-26T08:22:55;46.72;;;32.00;;
32214;SDS011;18708;53.124;23.190;2024-02-26T08:25:21;46.10;;;30.17;;
32214;SDS011;18708;53.124;23.190;2024-02-26T08:27:47;48.05;;;31.33;;
32214;SDS011;18708;53.124;23.190;2024-02-26T08:30:13;49.17;;;30.02;;
32214;SDS011;18708;53.124;23.190;2024-02-26T08:32:42;45.97;;;30.70;;
32214;SDS011;18708;53.124;23.190;2024-02-26T08:35:08;47.38;;;31.08;;
32214;SDS011;18708;53.124;23.190;2024-02-26T08:37:34;46.15;;;29.05;;
32214;SDS011;18708;53.124;23.190;2024-02-26T08:39:59;45.00;;;30.38;;
32214;SDS011;18708;53.124;23.190;2024-02-26T08:42:25;47.92;;;32.53;;
32214;SDS011;18708;53.124;23.190;2024-02-26T08:44:51;47.10;;;31.60;;
32214;SDS011;18708;53.124;23.190;2024-02-26T08:47:16;51.83;;;32.72;;
32214;SDS011;18708;53.124;23.190;2024-02-26T08:49:42;48.60;;;33.15;;
32214;SDS011;18708;53.124;23.190;2024-02-26T08:52:09;51.22;;;32.75;;
32214;SDS011;18708;53.124;23.190;2024-02-26T08:54:35;46.35;;;31.60;;
32214;SDS011;18708;53.124;23.190;2024-02-26T08:57:01;39.58;;;29.15;;
32214;SDS011;18708;53.124;23.190;2024-02-26T08:59:27;42.10;;;30.08;;
32214;SDS011;18708;53.124;23.190;2024-02-26T09:01:53;42.97;;;30.48;;
32214;SDS011;18708;53.124;23.190;2024-02-26T09:04:19;45.83;;;31.42;;
32214;SDS011;18708;53.124;23.190;2024-02-26T09:06:45;40.45;;;27.67;;
32214;SDS011;18708;53.124;23.190;2024-02-26T09:09:11;40.92;;;27.50;;
32214;SDS011;18708;53.124;23.190;2024-02-26T09:11:37;37.45;;;26.65;;
32214;SDS011;18708;53.124;23.190;2024-02-26T09:14:03;40.22;;;27.33;;
32214;SDS011;18708;53.124;23.190;2024-02-26T09:16:29;39.00;;;26.27;;
32214;SDS011;18708;53.124;23.190;2024-02-26T09:18:55;41.58;;;27.88;;
32214;SDS011;18708;53.124;23.190;2024-02-26T09:21:21;34.90;;;24.77;;
32214;SDS011;18708;53.124;23.190;2024-02-26T09:23:48;39.00;;;27.92;;
32214;SDS011;18708;53.124;23.190;2024-02-26T09:26:17;34.75;;;27.45;;
32214;SDS011;18708;53.124;23.190;2024-02-26T09:28:43;55.80;;;37.83;;
32214;SDS011;18708;53.124;23.190;2024-02-26T09:31:10;39.38;;;30.27;;
32214;SDS011;18708;53.124;23.190;2024-02-26T09:33:36;32.83;;;24.58;;
32214;SDS011;18708;53.124;23.190;2024-02-26T09:36:02;38.38;;;27.63;;
32214;SDS011;18708;53.124;23.190;2024-02-26T09:38:29;33.70;;;27.30;;
32214;SDS011;18708;53.124;23.190;2024-02-26T09:40:56;24.63;;;21.08;;
32214;SDS011;18708;53.124;23.190;2024-02-26T09:43:22;32.63;;;23.65;;
32214;SDS011;18708;53.124;23.190;2024-02-26T09:45:52;32.10;;;24.23;;
32214;SDS011;18708;53.124;23.190;2024-02-26T09:48:20;32.10;;;24.38;;
32214;SDS011;18708;53.124;23.190;2024-02-26T09:50:47;74.35;;;49.58;;
32214;SDS011;18708;53.124;23.190;2024-02-26T09:53:14;46.33;;;41.60;;
32214;SDS011;18708;53.124;23.190;2024-02-26T09:55:40;31.48;;;25.23;;
32214;SDS011;18708;53.124;23.190;2024-02-26T09:58:06;30.73;;;23.27;;
32214;SDS011;18708;53.124;23.190;2024-02-26T10:00:32;33.35;;;24.23;;
32214;SDS011;18708;53.124;23.190;2024-02-26T10:03:04;26.33;;;21.35;;
32214;SDS011;18708;53.124;23.190;2024-02-26T10:05:34;26.10;;;21.40;;
32214;SDS011;18708;53.124;23.190;2024-02-26T10:08:02;25.63;;;20.67;;
32214;SDS011;18708;53.124;23.190;2024-02-26T10:10:29;28.05;;;21.40;;
32214;SDS011;18708;53.124;23.190;2024-02-26T10:12:58;27.30;;;19.95;;
32214;SDS011;18708;53.124;23.190;2024-02-26T10:15:25;27.27;;;21.15;;
32214;SDS011;18708;53.124;23.190;2024-02-26T10:17:51;28.52;;;22.38;;
32214;SDS011;18708;53.124;23.190;2024-02-26T10:20:17;25.52;;;19.77;;
32214;SDS011;18708;53.124;23.190;2024-02-26T10:22:44;25.33;;;19.35;;
32214;SDS011;18708;53.124;23.190;2024-02-26T10:25:10;32.92;;;22.00;;
32214;SDS011;18708;53.124;23.190;2024-02-26T10:27:36;23.40;;;17.55;;
32214;SDS011;18708;53.124;23.190;2024-02-26T10:30:02;21.40;;;17.27;;
32214;SDS011;18708;53.124;23.190;2024-02-26T10:32:29;21.50;;;17.35;;
32214;SDS011;18708;53.124;23.190;2024-02-26T10:34:56;20.10;;;16.45;;
32214;SDS011;18708;53.124;23.190;2024-02-26T10:37:22;17.20;;;15.15;;
32214;SDS011;18708;53.124;23.190;2024-02-26T10:39:48;14.98;;;13.25;;
32214;SDS011;18708;53.124;23.190;2024-02-26T10:42:14;13.48;;;12.07;;
32214;SDS011;18708;53.124;23.190;2024-02-26T10:44:40;15.30;;;13.38;;
32214;SDS011;18708;53.124;23.190;2024-02-26T10:47:07;15.07;;;12.52;;
32214;SDS011;18708;53.124;23.190;2024-02-26T10:49:35;13.52;;;10.45;;
32214;SDS011;18708;53.124;23.190;2024-02-26T10:52:00;11.75;;;10.10;;
32214;SDS011;18708;53.124;23.190;2024-02-26T10:54:29;13.23;;;11.02;;
32214;SDS011;18708;53.124;23.190;2024-02-26T10:56:56;12.02;;;10.77;;
32214;SDS011;18708;53.124;23.190;2024-02-26T10:59:23;14.32;;;9.13;;
32214;SDS011;18708;53.124;23.190;2024-02-26T11:01:49;12.32;;;9.82;;
32214;SDS011;18708;53.124;23.190;2024-02-26T11:04:16;15.07;;;8.93;;
32214;SDS011;18708;53.124;23.190;2024-02-26T11:06:43;16.20;;;8.88;;
32214;SDS011;18708;53.124;23.190;2024-02-26T11:09:11;7.90;;;6.85;;
32214;SDS011;18708;53.124;23.190;2024-02-26T11:11:38;12.68;;;7.38;;
32214;SDS011;18708;53.124;23.190;2024-02-26T11:14:05;8.90;;;7.47;;
32214;SDS011;18708;53.124;23.190;2024-02-26T11:16:33;8.13;;;6.78;;
32214;SDS011;18708;53.124;23.190;2024-02-26T11:19:01;9.43;;;7.53;;
32214;SDS011;18708;53.124;23.190;2024-02-26T11:21:28;8.63;;;7.38;;
32214;SDS011;18708;53.124;23.190;2024-02-26T11:24:12;9.77;;;6.60;;
32214;SDS011;18708;53.124;23.190;2024-02-26T11:26:59;10.80;;;6.80;;
32214;SDS011;18708;53.124;23.190;2024-02-26T11:29:28;9.98;;;6.35;;
32214;SDS011;18708;53.124;23.190;2024-02-26T11:32:03;11.40;;;6.22;;
32214;SDS011;18708;53.124;23.190;2024-02-26T11:34:30;9.07;;;6.47;;
32214;SDS011;18708;53.124;23.190;2024-02-26T11:36:56;13.07;;;7.15;;
32214;SDS011;18708;53.124;23.190;2024-02-26T11:39:22;8.85;;;5.93;;
32214;SDS011;18708;53.124;23.190;2024-02-26T11:41:49;9.63;;;6.35;;
32214;SDS011;18708;53.124;23.190;2024-02-26T11:44:15;6.78;;;5.78;;
32214;SDS011;18708;53.124;23.190;2024-02-26T11:46:54;5.18;;;4.68;;
32214;SDS011;18708;53.124;23.190;2024-02-26T11:51:57;16.55;;;7.28;;
32214;SDS011;18708;53.124;23.190;2024-02-26T11:57:37;5.68;;;5.18;;
32214;SDS011;18708;53.124;23.190;2024-02-26T12:02:55;5.38;;;4.22;;
32214;SDS011;18708;53.124;23.190;2024-02-26T12:05:26;8.13;;;4.50;;
32214;SDS011;18708;53.124;23.190;2024-02-26T12:07:59;8.48;;;5.13;;
32214;SDS011;18708;53.124;23.190;2024-02-26T12:10:32;5.78;;;4.47;;
32214;SDS011;18708;53.124;23.190;2024-02-26T12:13:05;7.40;;;4.55;;
32214;SDS011;18708;53.124;23.190;2024-02-26T12:15:42;5.18;;;4.20;;
32214;SDS011;18708;53.124;23.190;2024-02-26T12:18:17;5.47;;;4.22;;
32214;SDS011;18708;53.124;23.190;2024-02-26T12:20:43;5.78;;;4.47;;
32214;SDS011;18708;53.124;23.190;2024-02-26T12:23:10;6.07;;;4.28;;
32214;SDS011;18708;53.124;23.190;2024-02-26T12:25:42;5.87;;;3.90;;
32214;SDS011;18708;53.124;23.190;2024-02-26T12:28:09;8.15;;;4.13;;
32214;SDS011;18708;53.124;23.190;2024-02-26T12:30:34;4.72;;;3.95;;
32214;SDS011;18708;53.124;23.190;2024-02-26T12:33:00;5.65;;;4.00;;
32214;SDS011;18708;53.124;23.190;2024-02-26T12:35:27;6.68;;;3.72;;
32214;SDS011;18708;53.124;23.190;2024-02-26T12:37:54;5.30;;;4.10;;
32214;SDS011;18708;53.124;23.190;2024-02-26T12:40:20;15.93;;;5.03;;
32214;SDS011;18708;53.124;23.190;2024-02-26T12:42:46;5.95;;;4.13;;
32214;SDS011;18708;53.124;23.190;2024-02-26T12:45:12;6.68;;;4.63;;
32214;SDS011;18708;53.124;23.190;2024-02-26T12:47:41;4.88;;;4.35;;
32214;SDS011;18708;53.124;23.190;2024-02-26T12:50:08;7.90;;;4.30;;
32214;SDS011;18708;53.124;23.190;2024-02-26T12:52:35;9.80;;;3.78;;
32214;SDS011;18708;53.124;23.190;2024-02-26T12:55:04;6.47;;;4.05;;
32214;SDS011;18708;53.124;23.190;2024-02-26T12:57:34;4.45;;;3.88;;
32214;SDS011;18708;53.124;23.190;2024-02-26T13:00:07;7.53;;;4.50;;
32214;SDS011;18708;53.124;23.190;2024-02-26T13:02:35;5.75;;;4.10;;
32214;SDS011;18708;53.124;23.190;2024-02-26T13:05:02;20.65;;;8.40;;
32214;SDS011;18708;53.124;23.190;2024-02-26T13:07:29;9.27;;;5.82;;
32214;SDS011;18708;53.124;23.190;2024-02-26T13:09:55;6.63;;;5.03;;
32214;SDS011;18708;53.124;23.190;2024-02-26T13:12:21;9.48;;;5.40;;
32214;SDS011;18708;53.124;23.190;2024-02-26T13:14:47;6.32;;;5.15;;
32214;SDS011;18708;53.124;23.190;2024-02-26T13:17:12;10.60;;;6.60;;
32214;SDS011;18708;53.124;23.190;2024-02-26T13:19:48;9.90;;;5.30;;
32214;SDS011;18708;53.124;23.190;2024-02-26T13:22:15;7.03;;;4.82;;
32214;SDS011;18708;53.124;23.190;2024-02-26T13:24:41;11.10;;;7.13;;
32214;SDS011;18708;53.124;23.190;2024-02-26T13:27:07;28.95;;;8.00;;
32214;SDS011;18708;53.124;23.190;2024-02-26T13:29:33;9.70;;;4.75;;
32214;SDS011;18708;53.124;23.190;2024-02-26T13:31:59;8.60;;;5.15;;
32214;SDS011;18708;53.124;23.190;2024-02-26T13:34:25;4.97;;;4.47;;
32214;SDS011;18708;53.124;23.190;2024-02-26T13:36:56;10.45;;;4.88;;
32214;SDS011;18708;53.124;23.190;2024-02-26T13:39:25;6.50;;;4.35;;
32214;SDS011;18708;53.124;23.190;2024-02-26T13:41:51;8.30;;;4.88;;
32214;SDS011;18708;53.124;23.190;2024-02-26T13:44:18;8.00;;;5.15;;
32214;SDS011;18708;53.124;23.190;2024-02-26T13:46:44;15.23;;;6.35;;
32214;SDS011;18708;53.124;23.190;2024-02-26T13:49:10;6.03;;;4.63;;
32214;SDS011;18708;53.124;23.190;2024-02-26T13:51:36;11.80;;;4.70;;
32214;SDS011;18708;53.124;23.190;2024-02-26T13:54:03;12.40;;;8.50;;
32214;SDS011;18708;53.124;23.190;2024-02-26T13:56:29;9.27;;;6.68;;
32214;SDS011;18708;53.124;23.190;2024-02-26T13:58:55;9.50;;;5.68;;
32214;SDS011;18708;53.124;23.190;2024-02-26T14:01:21;7.07;;;5.85;;
32214;SDS011;18708;53.124;23.190;2024-02-26T14:03:47;9.60;;;7.28;;
32214;SDS011;18708;53.124;23.190;2024-02-26T14:06:13;11.55;;;6.97;;
32214;SDS011;18708;53.124;23.190;2024-02-26T14:08:39;7.47;;;5.57;;
32214;SDS011;18708;53.124;23.190;2024-02-26T14:11:06;10.52;;;5.63;;
32214;SDS011;18708;53.124;23.190;2024-02-26T14:13:31;9.20;;;6.53;;
32214;SDS011;18708;53.124;23.190;2024-02-26T14:15:57;8.38;;;5.10;;
32214;SDS011;18708;53.124;23.190;2024-02-26T14:18:23;13.63;;;5.47;;